KYKN/YKN METAR and TAF weather

Enter ICAO airport designator
Station Type Date Time Source
KYKN METAR 2020/01/24 20:56 UTC NOAA

KYKN 242056Z AUTO 30012KT 8SM OVC005 M03/M04 A3006 RMK AO2 SLP210 T10331044 56016 FZRANO


Station Type Date Time Source
KYKN Decoded METAR 2020/01/24 20:56 UTC NOAA

Yankton, Chan Gurney Municipal Airport, SD, United States (KYKN) 42-55N 097-23W
Jan 24, 2020 - 03:56 PM EST / 2020.01.24 2056 UTC
Wind: from the WNW (300 degrees) at 14 MPH (12 KT):0
Visibility: 8 mile(s):0
Sky conditions: overcast
Temperature: 26.1 F (-3.3 C)
Windchill: 14 F (-10 C):1
Dew Point: 24.1 F (-4.4 C)
Relative Humidity: 92%
Pressure (altimeter): 30.06 in. Hg (1017 hPa)
Pressure tendency: 0.05 inches (1.6 hPa) lower than three hours ago
ob: KYKN 242056Z AUTO 30012KT 8SM OVC005 M03/M04 A3006 RMK AO2 SLP210 T10331044 56016 FZRANO
cycle: 21

Station Type Date Time Source
KYKN TAF UTC NOAA

Error!

Example: see airport list